Time,TemperatureF,DewpointF,PressureIn,WindDirection,WindDirectionDegrees,WindSpeedMPH,WindSpeedGustMPH,Humidity,HourlyPrecipIn,Conditions,Clouds,dailyrainin,SolarRadiationWatts/m^2,SoftwareType,DateUTC
2013-06-26 00:14:00,68.3,68.0,29.67,SW,221,1.0,8.0,98,0.00,,,0.00,0,weatherlink.com 1.10,2013-06-26 04:14:00,
2013-06-26 00:29:00,68.1,68.0,29.67,SW,223,0.0,5.0,98,0.00,,,0.00,0,weatherlink.com 1.10,2013-06-26 04:29:00,
2013-06-26 00:44:00,68.1,68.0,29.67,WSW,251,0.0,7.0,98,0.00,,,0.00,0,weatherlink.com 1.10,2013-06-26 04:44:00,
2013-06-26 00:59:00,67.9,67.0,29.67,WSW,244,5.0,7.0,97,0.00,,,0.00,0,weatherlink.com 1.10,2013-06-26 04:59:00,
2013-06-26 01:14:00,67.9,67.0,29.67,WSW,248,4.0,7.0,97,0.00,,,0.00,0,weatherlink.com 1.10,2013-06-26 05:14:00,
2013-06-26 01:29:00,67.9,67.0,29.67,WSW,240,0.0,7.0,97,0.00,,,0.00,0,weatherlink.com 1.10,2013-06-26 05:29:00,
2013-06-26 01:44:00,67.8,67.0,29.67,WSW,240,0.0,5.0,97,0.00,,,0.00,0,weatherlink.com 1.10,2013-06-26 05:44:00,
2013-06-26 01:59:00,67.8,67.0,29.66,WSW,240,0.0,6.0,97,0.00,,,0.00,0,weatherlink.com 1.10,2013-06-26 05:59:00,
2013-06-26 02:14:00,67.6,67.0,29.66,WSW,240,5.0,6.0,97,0.00,,,0.00,0,weatherlink.com 1.10,2013-06-26 06:14:00,
2013-06-26 02:29:00,67.6,67.0,29.66,WSW,240,0.0,5.0,97,0.00,,,0.00,0,weatherlink.com 1.10,2013-06-26 06:29:00,
2013-06-26 02:44:00,67.4,66.0,29.65,WSW,240,0.0,5.0,96,0.00,,,0.00,0,weatherlink.com 1.10,2013-06-26 06:44:00,
2013-06-26 02:59:00,66.6,66.0,29.66,WSW,240,0.0,0.0,97,0.00,,,0.00,0,weatherlink.com 1.10,2013-06-26 06:59:00,
2013-06-26 03:14:00,66.4,66.0,29.66,WSW,240,0.0,0.0,97,0.00,,,0.00,0,weatherlink.com 1.10,2013-06-26 07:14:00,
2013-06-26 03:29:00,66.6,66.0,29.66,WSW,240,0.0,1.0,98,0.00,,,0.00,0,weatherlink.com 1.10,2013-06-26 07:29:00,
2013-06-26 03:44:00,66.3,66.0,29.66,WSW,240,0.0,5.0,98,0.00,,,0.00,0,weatherlink.com 1.10,2013-06-26 07:44:00,
2013-06-26 03:59:00,65.8,65.0,29.66,WSW,240,0.0,0.0,98,0.00,,,0.00,0,weatherlink.com 1.10,2013-06-26 07:59:00,
2013-06-26 04:14:00,66.0,66.0,29.66,WSW,249,3.0,6.0,99,0.00,,,0.00,0,weatherlink.com 1.10,2013-06-26 08:14:00,
2013-06-26 04:29:00,66.1,66.0,29.66,WSW,249,0.0,1.0,99,0.00,,,0.00,0,weatherlink.com 1.10,2013-06-26 08:29:00,
2013-06-26 04:44:00,65.5,65.0,29.66,WSW,249,0.0,0.0,99,0.00,,,0.00,0,weatherlink.com 1.10,2013-06-26 08:44:00,
2013-06-26 04:59:00,65.3,65.0,29.67,WSW,248,2.0,5.0,99,0.00,,,0.00,0,weatherlink.com 1.10,2013-06-26 08:59:00,
2013-06-26 05:14:00,66.1,66.0,29.68,SW,234,6.0,8.0,100,0.00,,,0.00,5,weatherlink.com 1.10,2013-06-26 09:14:00,
2013-06-26 05:29:00,66.3,66.0,29.69,WSW,250,6.0,10.0,100,0.00,,,0.00,14,weatherlink.com 1.10,2013-06-26 09:29:00,
2013-06-26 05:44:00,66.4,66.0,29.69,WSW,240,0.0,10.0,100,0.00,,,0.00,26,weatherlink.com 1.10,2013-06-26 09:44:00,
2013-06-26 05:59:00,66.6,67.0,29.69,WSW,240,1.0,6.0,100,0.00,,,0.00,30,weatherlink.com 1.10,2013-06-26 09:59:00,
2013-06-26 06:14:00,67.1,67.0,29.69,WSW,241,0.0,6.0,100,0.00,,,0.00,51,weatherlink.com 1.10,2013-06-26 10:14:00,
2013-06-26 06:29:00,67.4,67.0,29.69,WSW,241,0.0,0.0,100,0.00,,,0.00,39,weatherlink.com 1.10,2013-06-26 10:29:00,
2013-06-26 06:45:00,67.8,68.0,29.68,SW,223,0.0,4.0,100,0.00,,,0.00,88,weatherlink.com 1.10,2013-06-26 10:45:00,
2013-06-26 07:00:00,68.6,69.0,29.68,East,94,0.0,0.0,100,0.00,,,0.00,162,weatherlink.com 1.10,2013-06-26 11:00:00,
2013-06-26 07:15:00,68.6,68.0,29.69,East,94,0.0,2.0,99,0.00,,,0.00,90,weatherlink.com 1.10,2013-06-26 11:15:00,
2013-06-26 07:30:00,68.9,68.0,29.69,SSE,157,0.0,5.0,97,0.00,,,0.00,53,weatherlink.com 1.10,2013-06-26 11:30:00,
2013-06-26 07:45:00,68.6,68.0,29.69,WSW,254,0.0,6.0,96,0.00,,,0.00,54,weatherlink.com 1.10,2013-06-26 11:45:00,
2013-06-26 08:00:00,68.4,67.0,29.70,WSW,254,4.0,7.0,96,0.00,,,0.00,37,weatherlink.com 1.10,2013-06-26 12:00:00,
2013-06-26 08:15:00,68.4,67.0,29.70,WSW,255,0.0,5.0,96,0.00,,,0.00,65,weatherlink.com 1.10,2013-06-26 12:15:00,
2013-06-26 08:30:00,68.9,68.0,29.69,WSW,255,0.0,4.0,96,0.00,,,0.00,109,weatherlink.com 1.10,2013-06-26 12:30:00,
2013-06-26 08:45:00,69.3,68.0,29.69,WSW,254,2.0,5.0,96,0.00,,,0.00,188,weatherlink.com 1.10,2013-06-26 12:45:00,
2013-06-26 09:00:00,70.3,69.0,29.70,WSW,242,5.0,7.0,94,0.00,,,0.00,297,weatherlink.com 1.10,2013-06-26 13:00:00,
2013-06-26 09:15:00,72.0,69.0,29.69,WSW,243,4.0,9.0,91,0.00,,,0.00,290,weatherlink.com 1.10,2013-06-26 13:15:00,
2013-06-26 09:30:00,73.2,70.0,29.69,WSW,243,5.0,6.0,89,0.00,,,0.00,388,weatherlink.com 1.10,2013-06-26 13:30:00,
2013-06-26 09:45:00,73.9,69.0,29.69,West,275,0.0,7.0,83,0.00,,,0.00,369,weatherlink.com 1.10,2013-06-26 13:45:00,
2013-06-26 10:00:00,74.6,69.0,29.70,WNW,299,1.0,5.0,83,0.00,,,0.00,366,weatherlink.com 1.10,2013-06-26 14:00:00,
2013-06-26 10:15:00,75.3,70.0,29.70,WNW,298,1.0,2.0,84,0.00,,,0.00,327,weatherlink.com 1.10,2013-06-26 14:15:00,
2013-06-26 10:30:00,74.6,69.0,29.70,WNW,302,0.0,7.0,83,0.00,,,0.00,183,weatherlink.com 1.10,2013-06-26 14:30:00,
2013-06-26 10:45:00,74.6,69.0,29.70,WNW,303,0.0,5.0,83,0.00,,,0.00,334,weatherlink.com 1.10,2013-06-26 14:45:00,
2013-06-26 11:00:00,75.1,69.0,29.70,NW,309,3.0,7.0,81,0.00,,,0.00,304,weatherlink.com 1.10,2013-06-26 15:00:00,
2013-06-26 11:15:00,75.4,69.0,29.70,NW,311,0.0,7.0,79,0.00,,,0.00,350,weatherlink.com 1.10,2013-06-26 15:15:00,
2013-06-26 11:30:00,76.0,69.0,29.70,NW,312,4.0,6.0,79,0.00,,,0.00,390,weatherlink.com 1.10,2013-06-26 15:30:00,
2013-06-26 11:45:00,76.5,68.0,29.70,NW,317,4.0,6.0,76,0.00,,,0.00,476,weatherlink.com 1.10,2013-06-26 15:45:00,
2013-06-26 12:00:00,77.0,69.0,29.70,NW,326,7.0,7.0,75,0.00,,,0.00,492,weatherlink.com 1.10,2013-06-26 16:00:00,
2013-06-26 12:15:00,76.8,69.0,29.70,NW,325,0.0,4.0,77,0.00,,,0.00,279,weatherlink.com 1.10,2013-06-26 16:15:00,
2013-06-26 12:30:00,75.8,68.0,29.70,NNW,338,1.0,6.0,77,0.00,,,0.00,74,weatherlink.com 1.10,2013-06-26 16:30:00,
2013-06-26 12:45:00,74.0,69.0,29.70,SSW,200,0.0,8.0,84,0.00,,,0.00,46,weatherlink.com 1.10,2013-06-26 16:45:00,
2013-06-26 13:00:00,72.5,70.0,29.70,SSW,200,1.0,4.0,92,0.00,,,0.00,26,weatherlink.com 1.10,2013-06-26 17:00:00,
2013-06-26 13:15:00,71.3,69.0,29.71,SSW,196,0.0,5.0,93,0.05,,,0.05,23,weatherlink.com 1.10,2013-06-26 17:15:00,
2013-06-26 13:30:00,70.3,69.0,29.71,WNW,287,0.0,8.0,94,0.62,,,0.62,33,weatherlink.com 1.10,2013-06-26 17:30:00,
2013-06-26 13:45:00,69.4,68.0,29.70,ESE,119,2.0,7.0,95,1.02,,,1.02,47,weatherlink.com 1.10,2013-06-26 17:45:00,
2013-06-26 14:00:00,68.8,67.0,29.69,ENE,62,1.0,5.0,95,1.03,,,1.04,33,weatherlink.com 1.10,2013-06-26 18:00:00,
2013-06-26 14:15:00,68.4,67.0,29.71,NE,55,0.0,4.0,95,1.13,,,1.19,37,weatherlink.com 1.10,2013-06-26 18:15:00,
2013-06-26 14:30:00,69.1,68.0,29.70,ENE,60,0.0,6.0,96,0.55,,,1.19,151,weatherlink.com 1.10,2013-06-26 18:30:00,
2013-06-26 14:45:00,70.9,70.0,29.70,ENE,60,0.0,2.0,97,0.18,,,1.20,241,weatherlink.com 1.10,2013-06-26 18:45:00,
2013-06-26 15:00:00,70.6,70.0,29.70,ENE,60,0.0,0.0,96,0.20,,,1.24,53,weatherlink.com 1.10,2013-06-26 19:00:00,
2013-06-26 15:15:00,69.6,69.0,29.70,ENE,61,0.0,5.0,96,0.15,,,1.34,23,weatherlink.com 1.10,2013-06-26 19:15:00,
2013-06-26 15:30:00,69.1,68.0,29.71,WNW,284,0.0,6.0,96,0.15,,,1.34,23,weatherlink.com 1.10,2013-06-26 19:30:00,
2013-06-26 15:45:00,68.8,68.0,29.71,SSE,148,0.0,5.0,96,0.36,,,1.56,16,weatherlink.com 1.10,2013-06-26 19:45:00,
2013-06-26 16:00:00,68.4,68.0,29.71,SSE,148,0.0,1.0,97,0.33,,,1.58,39,weatherlink.com 1.10,2013-06-26 20:00:00,
2013-06-26 16:15:00,68.8,68.0,29.71,ESE,109,0.0,4.0,97,0.26,,,1.60,63,weatherlink.com 1.10,2013-06-26 20:15:00,
2013-06-26 16:30:00,68.8,68.0,29.72,NNW,348,3.0,14.0,97,0.34,,,1.68,139,weatherlink.com 1.10,2013-06-26 20:30:00,
2013-06-26 16:45:00,68.3,68.0,29.73,NNW,338,5.0,8.0,97,0.11,,,1.68,40,weatherlink.com 1.10,2013-06-26 20:45:00,
2013-06-26 17:00:00,68.8,68.0,29.73,North,355,1.0,9.0,97,0.10,,,1.68,139,weatherlink.com 1.10,2013-06-26 21:00:00,
2013-06-26 17:15:00,68.6,68.0,29.73,NW,315,8.0,9.0,97,0.08,,,1.68,83,weatherlink.com 1.10,2013-06-26 21:15:00,
2013-06-26 17:31:00,68.6,68.0,29.72,NW,318,0.0,4.0,97,0.00,,,1.68,88,weatherlink.com 1.10,2013-06-26 21:31:00,
2013-06-26 17:45:00,68.4,68.0,29.72,NW,318,0.0,4.0,97,0.00,,,1.68,97,weatherlink.com 1.10,2013-06-26 21:45:00,
2013-06-26 18:00:00,68.6,68.0,29.71,NW,318,0.0,0.0,97,0.00,,,1.68,105,weatherlink.com 1.10,2013-06-26 22:00:00,
2013-06-26 18:15:00,68.8,68.0,29.71,NW,318,2.0,2.0,97,0.00,,,1.68,146,weatherlink.com 1.10,2013-06-26 22:15:00,
2013-06-26 18:30:00,68.9,68.0,29.71,SW,224,2.0,6.0,97,0.00,,,1.68,105,weatherlink.com 1.10,2013-06-26 22:30:00,
2013-06-26 18:45:00,69.4,69.0,29.71,SW,224,3.0,6.0,97,0.00,,,1.68,176,weatherlink.com 1.10,2013-06-26 22:45:00,
2013-06-26 19:00:00,69.9,69.0,29.72,SW,223,0.0,5.0,95,0.00,,,1.68,42,weatherlink.com 1.10,2013-06-26 23:00:00,
2013-06-26 19:15:00,69.4,68.0,29.73,WNW,284,0.0,6.0,95,0.00,,,1.68,54,weatherlink.com 1.10,2013-06-26 23:15:00,
2013-06-26 19:30:00,69.6,68.0,29.74,WNW,284,0.0,5.0,94,0.00,,,1.68,33,weatherlink.com 1.10,2013-06-26 23:30:00,
2013-06-26 19:45:00,69.4,68.0,29.74,WNW,284,0.0,5.0,95,0.00,,,1.68,26,weatherlink.com 1.10,2013-06-26 23:45:00,
2013-06-26 20:00:00,68.9,68.0,29.75,WNW,284,0.0,2.0,96,0.00,,,1.68,16,weatherlink.com 1.10,2013-06-27 00:00:00,
2013-06-26 20:15:00,68.8,68.0,29.76,NNE,28,2.0,7.0,96,0.00,,,1.68,9,weatherlink.com 1.10,2013-06-27 00:15:00,
2013-06-26 20:30:00,68.4,67.0,29.75,NE,39,0.0,6.0,96,0.00,,,1.68,0,weatherlink.com 1.10,2013-06-27 00:30:00,
2013-06-26 20:45:00,68.1,67.0,29.75,NE,45,0.0,7.0,96,0.00,,,1.68,0,weatherlink.com 1.10,2013-06-27 00:45:00,
2013-06-26 21:00:00,67.4,67.0,29.76,ENE,69,0.0,4.0,97,0.00,,,1.68,0,weatherlink.com 1.10,2013-06-27 01:00:00,
2013-06-26 21:15:00,67.1,66.0,29.77,ENE,69,0.0,0.0,97,0.00,,,1.68,0,weatherlink.com 1.10,2013-06-27 01:15:00,
2013-06-26 21:30:00,67.3,67.0,29.77,ENE,69,0.0,0.0,98,0.00,,,1.68,0,weatherlink.com 1.10,2013-06-27 01:30:00,
2013-06-26 21:45:00,67.1,67.0,29.77,ENE,69,0.0,2.0,98,0.00,,,1.68,0,weatherlink.com 1.10,2013-06-27 01:45:00,
2013-06-26 22:01:00,66.8,66.0,29.78,ENE,69,4.0,6.0,98,0.00,,,1.68,0,weatherlink.com 1.10,2013-06-27 02:01:00,
2013-06-26 22:16:00,66.6,66.0,29.78,ENE,69,1.0,5.0,99,0.00,,,1.68,0,weatherlink.com 1.10,2013-06-27 02:16:00,
2013-06-26 22:31:00,66.3,66.0,29.78,ENE,69,3.0,6.0,99,0.00,,,1.68,0,weatherlink.com 1.10,2013-06-27 02:31:00,
2013-06-26 22:46:00,66.3,66.0,29.78,ENE,69,0.0,6.0,99,0.00,,,1.68,0,weatherlink.com 1.10,2013-06-27 02:46:00,
2013-06-26 23:01:00,66.4,66.0,29.78,SE,126,5.0,7.0,100,0.00,,,1.68,0,weatherlink.com 1.10,2013-06-27 03:01:00,
2013-06-26 23:16:00,66.6,67.0,29.77,SE,137,6.0,9.0,100,0.00,,,1.68,0,weatherlink.com 1.10,2013-06-27 03:16:00,
2013-06-26 23:31:00,66.6,67.0,29.78,SE,134,5.0,8.0,100,0.00,,,1.68,0,weatherlink.com 1.10,2013-06-27 03:31:00,
2013-06-26 23:46:00,66.8,67.0,29.78,SSE,153,0.0,6.0,100,0.00,,,1.68,0,weatherlink.com 1.10,2013-06-27 03:46:00,